Time;durP1;ratioP1;P1;durP2;ratioP2;P2;SDS_P1;SDS_P2;PMS_P1;PMS_P2;Temp;Humidity;BMP_temperature;BMP_pressure;BME280_temperature;BME280_humidity;BME280_pressure;Samples;Min_cycle;Max_cycle;Signal;HPM_P1;HPM_P2
2023/10/10 00:01:53;;;;;;;;;;;13.90;88.70;;;;;;5020143;28;19929;-70
2023/10/10 00:04:27;;;;;;;;;;;13.90;88.80;;;;;;5019592;28;20420;-70
2023/10/10 00:07:07;;;;;;;;;;;13.80;88.80;;;;;;5020994;28;19925;-70
2023/10/10 00:09:44;;;;;;;;;;;13.90;88.80;;;;;;5021658;28;19967;-70
2023/10/10 00:12:19;;;;;;;;;;;13.90;88.80;;;;;;5018749;28;20016;-70
2023/10/10 00:14:56;;;;;;;;;;;13.90;88.80;;;;;;5021034;28;19963;-73
2023/10/10 00:17:36;;;;;;;;;;;13.80;88.90;;;;;;5020561;28;20374;-74
2023/10/10 00:20:17;;;;;;;;;;;13.80;88.80;;;;;;5020150;28;20438;-74
2023/10/10 00:22:58;;;;;;;;;;;13.80;88.80;;;;;;4999783;28;19969;-71
2023/10/10 00:25:31;;;;;;;;;;;13.70;88.90;;;;;;5001073;28;19934;-72
2023/10/10 00:28:05;;;;;;;;;;;13.80;88.60;;;;;;5000239;28;19984;-72
2023/10/10 00:30:43;;;;;;;;;;;13.80;88.40;;;;;;5000619;28;19930;-72
2023/10/10 00:33:17;;;;;;;;;;;13.70;88.40;;;;;;5015562;28;19941;-71
2023/10/10 00:35:51;;;;;;;;;;;13.70;88.30;;;;;;4998193;28;19929;-72
2023/10/10 00:38:29;;;;;;;;;;;13.70;88.30;;;;;;5018433;28;19929;-72
2023/10/10 00:41:06;;;;;;;;;;;13.60;88.40;;;;;;5035167;28;19942;-72
2023/10/10 00:43:40;;;;;;;;;;;13.60;88.40;;;;;;5035202;28;20363;-73
2023/10/10 00:46:13;;;;;;;;;;;13.60;88.40;;;;;;5034871;28;19932;-73
2023/10/10 00:48:48;;;;;;;;;;;13.50;88.40;;;;;;5016274;28;19932;-74
2023/10/10 00:51:30;;;;;;;;;;;13.60;88.40;;;;;;5019567;28;20627;-73
2023/10/10 00:54:11;;;;;;;;;;;13.50;88.40;;;;;;5006162;28;20011;-73
2023/10/10 00:56:44;;;;;;;;;;;13.50;88.30;;;;;;5015556;28;19948;-73
2023/10/10 00:59:17;;;;;;;;;;;13.50;88.30;;;;;;5005131;28;19977;-73
2023/10/10 01:01:50;;;;;;;;;;;13.50;88.30;;;;;;4991608;28;19972;-73
2023/10/10 01:04:35;;;;;;;;;;;13.50;88.30;;;;;;4995830;28;19926;-74
2023/10/10 01:07:08;;;;;;;;;;;13.40;88.50;;;;;;5001153;28;19969;-73
2023/10/10 01:09:41;;;;;;;;;;;13.40;88.50;;;;;;4999785;28;19925;-73
2023/10/10 01:12:14;;;;;;;;;;;13.40;88.60;;;;;;4992767;28;19925;-73
2023/10/10 01:14:47;;;;;;;;;;;13.50;88.50;;;;;;5000599;28;19932;-73
2023/10/10 01:17:20;;;;;;;;;;;13.40;88.50;;;;;;4993840;28;19925;-73
2023/10/10 01:19:48;;;;;;;;;;;13.40;88.50;;;;;;4999476;28;19933;-74
2023/10/10 01:22:37;;;;;;;;;;;13.40;88.60;;;;;;5011965;28;19938;-74
2023/10/10 01:27:57;;;;;;;;;;;13.40;88.90;;;;;;4995366;28;19929;-62
2023/10/10 01:30:57;;;;;;;;;;;13.40;89.00;;;;;;4983134;28;19926;-63
2023/10/10 01:33:36;;;;;;;;;;;13.40;89.00;;;;;;4983626;28;19937;-63
2023/10/10 01:36:19;;;;;;;;;;;13.40;89.00;;;;;;4985556;28;19961;-62
2023/10/10 01:39:19;;;;;;;;;;;13.40;89.00;;;;;;5016428;28;19933;-63
2023/10/10 01:41:54;;;;;;;;;;;13.40;89.00;;;;;;5017877;28;20012;-62
2023/10/10 01:44:28;;;;;;;;;;;13.40;89.20;;;;;;5017909;28;19951;-62
2023/10/10 01:47:03;;;;;;;;;;;13.40;89.30;;;;;;5018781;28;19965;-62
2023/10/10 01:49:36;;;;;;;;;;;13.40;89.20;;;;;;5018271;28;20833;-62
2023/10/10 01:52:12;;;;;;;;;;;13.40;89.30;;;;;;5017459;28;21351;-61
2023/10/10 01:54:52;;;;;;;;;;;13.30;89.40;;;;;;5034640;28;19936;-61
2023/10/10 01:57:26;;;;;;;;;;;13.30;89.50;;;;;;5017543;28;19929;-61
2023/10/10 02:00:07;;;;;;;;;;;13.30;89.70;;;;;;5016178;28;20441;-61
2023/10/10 02:02:41;;;;;;;;;;;13.30;89.60;;;;;;5018532;28;19929;-62
2023/10/10 02:05:15;;;;;;;;;;;13.30;89.70;;;;;;5018657;28;20000;-62
2023/10/10 02:07:53;;;;;;;;;;;13.30;89.70;;;;;;5014694;28;20359;-62
2023/10/10 02:10:29;;;;;;;;;;;13.30;89.70;;;;;;5023809;28;19975;-62
2023/10/10 02:13:05;;;;;;;;;;;13.30;89.70;;;;;;5016185;28;19933;-61
2023/10/10 02:15:39;;;;;;;;;;;13.30;89.70;;;;;;5015979;28;19926;-61
2023/10/10 02:18:14;;;;;;;;;;;13.30;89.60;;;;;;5003320;28;19932;-61
2023/10/10 02:20:52;;;;;;;;;;;13.40;89.60;;;;;;5019445;28;19964;-61
2023/10/10 02:23:31;;;;;;;;;;;13.30;89.60;;;;;;5018651;28;20056;-62
2023/10/10 02:26:23;;;;;;;;;;;13.30;89.60;;;;;;5018126;28;20412;-62
2023/10/10 02:29:16;;;;;;;;;;;13.30;89.60;;;;;;5017218;28;20008;-62
2023/10/10 02:31:56;;;;;;;;;;;13.30;89.70;;;;;;4998361;28;19933;-62
2023/10/10 02:34:31;;;;;;;;;;;13.40;89.70;;;;;;4997723;28;19983;-69
2023/10/10 02:37:14;;;;;;;;;;;13.40;89.60;;;;;;5003499;28;19965;-69
2023/10/10 02:39:56;;;;;;;;;;;13.40;89.50;;;;;;5003641;28;19933;-70
2023/10/10 02:42:33;;;;;;;;;;;13.40;89.50;;;;;;4985614;28;20420;-70
2023/10/10 02:45:07;;;;;;;;;;;13.40;89.60;;;;;;5009353;28;19933;-69
2023/10/10 02:47:46;;;;;;;;;;;13.40;89.60;;;;;;4988067;28;20297;-69
2023/10/10 02:53:08;;;;;;;;;;;13.30;89.80;;;;;;5020672;28;19929;-69
2023/10/10 02:55:44;;;;;;;;;;;13.30;89.70;;;;;;5021906;28;20015;-69
2023/10/10 02:58:21;;;;;;;;;;;13.30;89.80;;;;;;5022457;28;19992;-69
2023/10/10 03:00:57;;;;;;;;;;;13.30;89.80;;;;;;5021033;28;20395;-69
2023/10/10 03:03:30;;;;;;;;;;;13.30;89.80;;;;;;5010745;28;19926;-69
2023/10/10 03:06:06;;;;;;;;;;;13.30;89.90;;;;;;4985933;28;20336;-70
2023/10/10 03:08:51;;;;;;;;;;;13.30;89.80;;;;;;5002773;28;20297;-69
2023/10/10 03:11:39;;;;;;;;;;;13.30;89.90;;;;;;5013887;28;19933;-68
2023/10/10 03:14:25;;;;;;;;;;;13.30;89.90;;;;;;5001699;28;19930;-69
2023/10/10 03:17:05;;;;;;;;;;;13.30;89.90;;;;;;4988278;28;19930;-70
2023/10/10 03:19:38;;;;;;;;;;;13.30;89.90;;;;;;4986937;28;19933;-70
2023/10/10 03:22:28;;;;;;;;;;;13.30;90.00;;;;;;5003724;28;19926;-68
2023/10/10 03:25:10;;;;;;;;;;;13.30;89.90;;;;;;5001929;28;20377;-69
2023/10/10 03:28:04;;;;;;;;;;;13.20;90.00;;;;;;4999582;28;20408;-69
2023/10/10 03:30:50;;;;;;;;;;;13.30;90.00;;;;;;5032548;28;20266;-68
2023/10/10 03:33:37;;;;;;;;;;;13.30;90.00;;;;;;5019969;28;19925;-69
2023/10/10 03:36:14;;;;;;;;;;;13.30;90.00;;;;;;5022181;28;19977;-68
2023/10/10 05:24:44;;;;;;;;;;;12.90;90.00;;;;;;5001355;28;19936;-62
2023/10/10 05:27:17;;;;;;;;;;;12.90;90.00;;;;;;5004185;28;19929;-62
2023/10/10 05:29:52;;;;;;;;;;;12.90;90.00;;;;;;4999514;28;19930;-62
2023/10/10 05:32:30;;;;;;;;;;;13.00;89.90;;;;;;5015460;28;20019;-61
2023/10/10 05:35:11;;;;;;;;;;;13.00;89.80;;;;;;5019735;28;20360;-61
2023/10/10 05:37:43;;;;;;;;;;;13.00;89.80;;;;;;5017114;28;19937;-62
2023/10/10 05:40:20;;;;;;;;;;;13.00;89.70;;;;;;5020153;28;19925;-61
2023/10/10 05:42:53;;;;;;;;;;;12.90;89.70;;;;;;4998354;28;19936;-61
2023/10/10 05:45:29;;;;;;;;;;;13.00;89.80;;;;;;4998346;28;19929;-62
2023/10/10 05:48:03;;;;;;;;;;;13.00;89.70;;;;;;4999950;28;19929;-62
2023/10/10 05:50:37;;;;;;;;;;;13.00;89.70;;;;;;4999520;28;19952;-62
2023/10/10 05:53:10;;;;;;;;;;;12.90;89.70;;;;;;5012344;28;19929;-62
2023/10/10 05:55:38;;;;;;;;;;;13.00;89.80;;;;;;4994392;28;20389;-62
2023/10/10 05:58:12;;;;;;;;;;;12.90;89.80;;;;;;4997779;28;19930;-61
2023/10/10 06:00:48;;;;;;;;;;;13.00;89.70;;;;;;4997525;28;19925;-62
2023/10/10 06:03:22;;;;;;;;;;;13.00;89.70;;;;;;4997611;28;20008;-65
2023/10/10 06:05:56;;;;;;;;;;;13.00;89.50;;;;;;4998761;28;19985;-65
2023/10/10 06:08:31;;;;;;;;;;;13.00;89.50;;;;;;5018651;28;20483;-67
2023/10/10 06:11:06;;;;;;;;;;;13.00;89.50;;;;;;5017616;28;19929;-65
2023/10/10 06:13:36;;;;;;;;;;;12.90;89.60;;;;;;5017054;28;19926;-66
2023/10/10 06:16:12;;;;;;;;;;;12.90;89.80;;;;;;5019723;28;20420;-66
2023/10/10 06:18:47;;;;;;;;;;;12.90;89.80;;;;;;4998715;28;20416;-66
2023/10/10 06:21:20;;;;;;;;;;;12.90;89.70;;;;;;4997344;28;20385;-66
2023/10/10 06:23:53;;;;;;;;;;;13.00;89.70;;;;;;4997042;28;19952;-66
2023/10/10 06:26:27;;;;;;;;;;;12.90;89.70;;;;;;4995524;28;20016;-66
2023/10/10 06:29:02;;;;;;;;;;;13.00;89.60;;;;;;4995576;28;19948;-67
2023/10/10 06:31:36;;;;;;;;;;;13.00;89.70;;;;;;5006486;28;20004;-66
2023/10/10 06:34:19;;;;;;;;;;;13.10;89.70;;;;;;5018514;28;20036;-65
2023/10/10 06:36:54;;;;;;;;;;;13.00;89.80;;;;;;4989660;28;20008;-67
2023/10/10 06:39:32;;;;;;;;;;;13.00;89.80;;;;;;5019294;28;20008;-67
2023/10/10 06:42:06;;;;;;;;;;;13.00;89.90;;;;;;5019255;28;19961;-67
2023/10/10 06:44:47;;;;;;;;;;;13.10;89.80;;;;;;5031816;28;20365;-66
2023/10/10 06:47:22;;;;;;;;;;;13.10;89.60;;;;;;5017817;28;19929;-66
2023/10/10 06:49:55;;;;;;;;;;;13.10;89.50;;;;;;4998970;28;20387;-66
2023/10/10 06:52:28;;;;;;;;;;;13.10;89.60;;;;;;4996710;28;19933;-66
2023/10/10 06:54:55;;;;;;;;;;;13.10;89.70;;;;;;4994585;28;19925;-66
2023/10/10 06:57:37;;;;;;;;;;;13.10;89.80;;;;;;4994671;28;20446;-68
2023/10/10 07:00:27;;;;;;;;;;;13.20;89.60;;;;;;4998052;28;19936;-66
2023/10/10 07:03:03;;;;;;;;;;;13.20;89.60;;;;;;5017536;28;20455;-66
2023/10/10 07:05:39;;;;;;;;;;;13.20;89.80;;;;;;5018378;28;19933;-67
2023/10/10 07:08:19;;;;;;;;;;;13.20;89.80;;;;;;5017989;28;20390;-64
2023/10/10 07:10:53;;;;;;;;;;;13.10;89.80;;;;;;5017195;28;19932;-65
2023/10/10 07:13:30;;;;;;;;;;;13.20;89.80;;;;;;5016859;28;19935;-65
2023/10/10 07:16:08;;;;;;;;;;;13.30;89.50;;;;;;5018494;28;19932;-67
2023/10/10 07:18:43;;;;;;;;;;;13.30;89.50;;;;;;5017978;28;19929;-66
2023/10/10 07:21:30;;;;;;;;;;;13.30;89.50;;;;;;5014330;28;20088;-66
2023/10/10 07:24:05;;;;;;;;;;;13.30;89.50;;;;;;5020787;28;20075;-67
2023/10/10 07:26:41;;;;;;;;;;;13.30;89.50;;;;;;5019256;28;19930;-67
2023/10/10 07:29:27;;;;;;;;;;;13.30;89.60;;;;;;5022030;28;20435;-66
2023/10/10 07:32:16;;;;;;;;;;;13.40;89.40;;;;;;5021858;28;19933;-67
2023/10/10 07:34:51;;;;;;;;;;;13.40;89.50;;;;;;5020187;28;19932;-66
2023/10/10 07:37:27;;;;;;;;;;;13.30;89.30;;;;;;5021396;28;19932;-67
2023/10/10 07:40:18;;;;;;;;;;;13.30;89.40;;;;;;5021750;28;19972;-67
2023/10/10 07:42:57;;;;;;;;;;;13.40;89.20;;;;;;5036046;28;19932;-67
2023/10/10 07:45:33;;;;;;;;;;;13.50;89.00;;;;;;5020945;28;19929;-67
2023/10/10 07:51:10;;;;;;;;;;;13.50;89.00;;;;;;4981454;28;19955;-66
2023/10/10 07:53:44;;;;;;;;;;;13.50;88.90;;;;;;5014859;28;20329;-67
2023/10/10 07:56:17;;;;;;;;;;;13.50;89.00;;;;;;5021870;28;20594;-66
2023/10/10 07:58:50;;;;;;;;;;;13.60;89.00;;;;;;5018495;28;19930;-65
2023/10/10 08:01:24;;;;;;;;;;;13.60;88.90;;;;;;5021692;28;20479;-69
2023/10/10 08:03:50;;;;;;;;;;;13.60;88.80;;;;;;5021397;28;19929;-67
2023/10/10 08:06:25;;;;;;;;;;;13.60;88.80;;;;;;5019452;28;19926;-68
2023/10/10 08:09:11;;;;;;;;;;;13.60;88.70;;;;;;5020992;28;19929;-67
2023/10/10 08:11:45;;;;;;;;;;;13.60;88.80;;;;;;5004862;28;19929;-67
2023/10/10 08:14:21;;;;;;;;;;;13.70;88.80;;;;;;5020326;28;19929;-67
2023/10/10 08:16:59;;;;;;;;;;;13.80;88.70;;;;;;5019900;28;19979;-67
2023/10/10 08:19:34;;;;;;;;;;;13.80;88.50;;;;;;5020094;28;19937;-66
2023/10/10 08:22:13;;;;;;;;;;;13.90;88.50;;;;;;5020407;28;19925;-65
2023/10/10 08:24:47;;;;;;;;;;;13.90;88.70;;;;;;5021269;28;19925;-76
2023/10/10 08:27:22;;;;;;;;;;;13.90;88.40;;;;;;5020554;28;19925;-76
2023/10/10 08:29:55;;;;;;;;;;;13.90;88.60;;;;;;5021613;28;20406;-74
2023/10/10 08:32:30;;;;;;;;;;;14.00;88.40;;;;;;5017937;28;19929;-75
2023/10/10 08:35:04;;;;;;;;;;;13.90;88.60;;;;;;5020336;28;19936;-76
2023/10/10 08:37:39;;;;;;;;;;;14.10;88.60;;;;;;5021206;28;19926;-77
2023/10/10 08:40:17;;;;;;;;;;;14.20;88.30;;;;;;5020623;28;19925;-75
2023/10/10 08:42:50;;;;;;;;;;;14.20;88.30;;;;;;4990946;28;19932;-75
2023/10/10 08:45:24;;;;;;;;;;;14.20;88.40;;;;;;5020131;28;19957;-74
2023/10/10 08:48:13;;;;;;;;;;;14.20;88.30;;;;;;5020388;28;20557;-72
2023/10/10 08:50:54;;;;;;;;;;;14.40;88.10;;;;;;5018749;28;19936;-75
2023/10/10 08:53:29;;;;;;;;;;;14.30;88.40;;;;;;5020467;28;19929;-75
2023/10/10 08:56:03;;;;;;;;;;;14.40;88.60;;;;;;5020054;28;19965;-76
2023/10/10 08:58:36;;;;;;;;;;;14.40;88.30;;;;;;5016400;28;19925;-75
2023/10/10 09:01:09;;;;;;;;;;;14.50;88.30;;;;;;5019230;28;19929;-75
2023/10/10 09:03:45;;;;;;;;;;;14.60;88.50;;;;;;5019868;28;21505;-73
2023/10/10 09:06:20;;;;;;;;;;;14.70;88.00;;;;;;5019495;28;19936;-73
2023/10/10 09:08:54;;;;;;;;;;;14.80;88.10;;;;;;4991464;28;20299;-73
2023/10/10 09:11:28;;;;;;;;;;;14.90;87.90;;;;;;5013917;28;20243;-75
2023/10/10 09:14:03;;;;;;;;;;;15.10;88.00;;;;;;5019396;28;20216;-76
2023/10/10 09:16:41;;;;;;;;;;;15.10;87.90;;;;;;5019235;28;19929;-73
2023/10/10 09:19:17;;;;;;;;;;;15.20;87.70;;;;;;5020125;28;20381;-74
2023/10/10 09:21:50;;;;;;;;;;;15.30;87.40;;;;;;5018798;28;19932;-74
2023/10/10 09:24:28;;;;;;;;;;;15.40;87.20;;;;;;5020248;28;19936;-74
2023/10/10 09:27:16;;;;;;;;;;;15.50;87.20;;;;;;5019658;28;19940;-75
2023/10/10 09:29:54;;;;;;;;;;;15.60;87.00;;;;;;5019640;28;19948;-75
2023/10/10 09:32:35;;;;;;;;;;;15.70;86.80;;;;;;5017178;28;19930;-75
2023/10/10 09:35:09;;;;;;;;;;;15.80;86.70;;;;;;5019221;28;19929;-68
2023/10/10 09:37:44;;;;;;;;;;;16.00;86.30;;;;;;5019404;28;24505;-68
2023/10/10 09:40:19;;;;;;;;;;;16.00;85.90;;;;;;5033963;28;20400;-69
2023/10/10 09:43:03;;;;;;;;;;;16.10;85.80;;;;;;5017809;28;19925;-69
2023/10/10 09:45:52;;;;;;;;;;;16.30;85.50;;;;;;5015775;28;20287;-68
2023/10/10 09:54:44;;;;;;;;;;;16.60;84.60;;;;;;5025727;28;19933;-68
2023/10/10 09:57:17;;;;;;;;;;;16.70;84.30;;;;;;5024872;28;19926;-68
2023/10/10 09:59:56;;;;;;;;;;;16.80;84.10;;;;;;5024098;28;19983;-68
2023/10/10 10:02:43;;;;;;;;;;;16.90;83.80;;;;;;5023867;28;20549;-68
2023/10/10 10:05:18;;;;;;;;;;;16.90;83.50;;;;;;5032553;28;20003;-68
2023/10/10 10:08:00;;;;;;;;;;;17.10;83.50;;;;;;5044131;28;19929;-68
2023/10/10 10:10:49;;;;;;;;;;;17.10;83.40;;;;;;5033345;28;20422;-69
2023/10/10 10:13:37;;;;;;;;;;;17.20;83.20;;;;;;5046747;28;19940;-68
2023/10/10 10:16:15;;;;;;;;;;;17.30;83.00;;;;;;5043638;28;19929;-68
2023/10/10 10:18:52;;;;;;;;;;;17.30;83.10;;;;;;5041927;28;19929;-69
2023/10/10 10:21:30;;;;;;;;;;;17.50;82.80;;;;;;5044558;28;19933;-69
2023/10/10 10:24:17;;;;;;;;;;;17.50;82.70;;;;;;5043020;28;20387;-68
2023/10/10 10:27:13;;;;;;;;;;;17.60;82.60;;;;;;5042680;28;19936;-69
2023/10/10 10:30:07;;;;;;;;;;;17.70;82.40;;;;;;5042839;28;20249;-69
2023/10/10 10:32:41;;;;;;;;;;;17.80;82.40;;;;;;5025905;28;19933;-69
2023/10/10 10:35:19;;;;;;;;;;;18.00;82.00;;;;;;5019096;28;20419;-69
2023/10/10 10:37:55;;;;;;;;;;;18.00;81.60;;;;;;5019342;28;19933;-69
2023/10/10 10:40:41;;;;;;;;;;;18.10;81.60;;;;;;5019478;28;19929;-69
2023/10/10 10:43:20;;;;;;;;;;;18.10;81.70;;;;;;5018048;28;19932;-68
2023/10/10 10:46:11;;;;;;;;;;;18.10;81.50;;;;;;5018974;28;20000;-69
2023/10/10 10:48:47;;;;;;;;;;;18.20;81.30;;;;;;5018105;28;20300;-70
2023/10/10 10:51:28;;;;;;;;;;;18.30;80.80;;;;;;5035389;28;19983;-69
2023/10/10 10:54:02;;;;;;;;;;;18.30;80.80;;;;;;5036711;28;19929;-69
2023/10/10 10:56:39;;;;;;;;;;;18.40;81.00;;;;;;5037284;28;20132;-69
2023/10/10 10:59:13;;;;;;;;;;;18.60;81.00;;;;;;5039052;28;19925;-69
2023/10/10 11:01:51;;;;;;;;;;;18.60;80.90;;;;;;5029601;28;19964;-68
2023/10/10 11:04:42;;;;;;;;;;;18.60;80.80;;;;;;5024392;28;19926;-71
2023/10/10 11:07:27;;;;;;;;;;;18.70;80.70;;;;;;5023531;28;19940;-68
2023/10/10 11:10:07;;;;;;;;;;;18.70;80.20;;;;;;5026035;28;20016;-70
2023/10/10 11:12:42;;;;;;;;;;;18.70;80.30;;;;;;5024332;28;19937;-68
2023/10/10 11:15:16;;;;;;;;;;;18.70;80.10;;;;;;5024583;28;19925;-69
2023/10/10 11:18:07;;;;;;;;;;;18.70;80.10;;;;;;5005399;28;20371;-69
2023/10/10 11:23:41;;;;;;;;;;;18.80;80.10;;;;;;5012430;28;19933;-69
2023/10/10 11:26:15;;;;;;;;;;;18.80;80.20;;;;;;5005376;28;19933;-69
2023/10/10 11:28:50;;;;;;;;;;;18.80;80.10;;;;;;5023401;28;19933;-70
2023/10/10 11:31:24;;;;;;;;;;;18.80;80.30;;;;;;5026102;28;19929;-68
2023/10/10 11:34:10;;;;;;;;;;;18.80;80.50;;;;;;5023544;28;19925;-69
2023/10/10 11:36:51;;;;;;;;;;;18.80;80.30;;;;;;5005515;28;20299;-69
2023/10/10 11:39:31;;;;;;;;;;;18.90;80.30;;;;;;5023676;28;19971;-70
2023/10/10 11:42:05;;;;;;;;;;;18.90;80.20;;;;;;5023884;28;20373;-69
2023/10/10 11:44:34;;;;;;;;;;;18.80;80.20;;;;;;5023401;28;19953;-68
2023/10/10 11:47:21;;;;;;;;;;;18.80;80.50;;;;;;5015783;28;20344;-69
2023/10/10 11:50:00;;;;;;;;;;;18.90;80.40;;;;;;5023383;28;19937;-69
2023/10/10 11:52:33;;;;;;;;;;;18.90;80.40;;;;;;5025979;28;19936;-69
2023/10/10 11:55:07;;;;;;;;;;;18.90;79.70;;;;;;5025022;28;19929;-72
2023/10/10 11:57:40;;;;;;;;;;;19.00;79.80;;;;;;5024801;28;19936;-73
2023/10/10 12:00:21;;;;;;;;;;;19.00;79.80;;;;;;5022421;28;19929;-74
2023/10/10 12:02:55;;;;;;;;;;;19.10;79.70;;;;;;5022616;28;19929;-73
2023/10/10 12:05:47;;;;;;;;;;;19.10;79.50;;;;;;5022901;28;20368;-74
2023/10/10 12:08:24;;;;;;;;;;;19.20;79.20;;;;;;5020960;28;19934;-74
2023/10/10 12:11:04;;;;;;;;;;;19.20;79.00;;;;;;5005802;28;20028;-74
2023/10/10 12:13:37;;;;;;;;;;;19.20;79.50;;;;;;5022048;28;19947;-74
2023/10/10 12:16:12;;;;;;;;;;;19.10;79.50;;;;;;5022017;28;19952;-72
2023/10/10 12:18:49;;;;;;;;;;;19.10;79.90;;;;;;5021098;28;19975;-71
2023/10/10 12:21:22;;;;;;;;;;;19.20;80.00;;;;;;5022716;28;19929;-73
2023/10/10 12:23:50;;;;;;;;;;;19.30;79.70;;;;;;5013214;28;19929;-74
2023/10/10 12:26:23;;;;;;;;;;;19.30;79.20;;;;;;5002475;28;20016;-73
2023/10/10 12:28:56;;;;;;;;;;;19.30;79.30;;;;;;5003171;28;19929;-72
2023/10/10 12:31:33;;;;;;;;;;;19.20;79.60;;;;;;5002423;28;20460;-73
2023/10/10 12:34:09;;;;;;;;;;;19.30;79.50;;;;;;5022614;28;20395;-73
2023/10/10 12:36:43;;;;;;;;;;;19.40;78.00;;;;;;5022863;28;19925;-73
2023/10/10 12:39:19;;;;;;;;;;;19.40;77.60;;;;;;5022964;28;19929;-73
2023/10/10 12:41:53;;;;;;;;;;;19.40;77.50;;;;;;5023722;28;20355;-73
2023/10/10 12:44:26;;;;;;;;;;;19.30;77.00;;;;;;5021713;28;19933;-72
2023/10/10 12:47:06;;;;;;;;;;;19.40;77.00;;;;;;5022200;28;20274;-73
2023/10/10 12:49:44;;;;;;;;;;;19.30;77.00;;;;;;5022145;28;19932;-72
2023/10/10 12:52:18;;;;;;;;;;;19.30;76.40;;;;;;5021234;28;19968;-73
2023/10/10 12:54:57;;;;;;;;;;;19.40;75.60;;;;;;5021759;28;19976;-73
2023/10/10 12:57:32;;;;;;;;;;;19.30;76.10;;;;;;5022241;28;19929;-73
2023/10/10 13:00:24;;;;;;;;;;;19.40;75.70;;;;;;5002743;28;19934;-73
2023/10/10 13:02:59;;;;;;;;;;;19.40;75.20;;;;;;5002598;28;20009;-62
2023/10/10 13:05:33;;;;;;;;;;;19.50;75.30;;;;;;5002662;28;20439;-63
2023/10/10 13:08:06;;;;;;;;;;;19.40;75.40;;;;;;5002677;28;19936;-62
2023/10/10 13:10:39;;;;;;;;;;;19.40;75.40;;;;;;5009448;28;20344;-62
2023/10/10 13:13:24;;;;;;;;;;;19.50;75.10;;;;;;5002171;28;19933;-63
2023/10/10 13:16:22;;;;;;;;;;;19.60;74.40;;;;;;5018307;28;19929;-62
2023/10/10 13:18:57;;;;;;;;;;;19.50;74.60;;;;;;5021282;28;19925;-63
2023/10/10 13:21:30;;;;;;;;;;;19.50;74.40;;;;;;5019609;28;19933;-62
2023/10/10 13:24:09;;;;;;;;;;;19.50;74.70;;;;;;5020356;28;20008;-64
2023/10/10 13:26:44;;;;;;;;;;;19.60;74.00;;;;;;5021381;28;19960;-63
2023/10/10 13:29:17;;;;;;;;;;;19.50;74.20;;;;;;5021414;28;20343;-61
2023/10/10 13:31:50;;;;;;;;;;;19.50;74.60;;;;;;5022114;28;19933;-63
2023/10/10 13:34:25;;;;;;;;;;;19.40;75.40;;;;;;5020725;28;19933;-63
2023/10/10 13:36:58;;;;;;;;;;;19.40;75.50;;;;;;5022033;28;20293;-63
2023/10/10 13:39:43;;;;;;;;;;;19.40;75.30;;;;;;5013322;28;20454;-64
2023/10/10 13:42:17;;;;;;;;;;;19.30;75.70;;;;;;5022001;28;19929;-63
2023/10/10 13:44:51;;;;;;;;;;;19.30;75.50;;;;;;5021601;28;19932;-63
2023/10/10 13:47:25;;;;;;;;;;;19.40;75.10;;;;;;5021200;28;19925;-63
2023/10/10 13:50:28;;;;;;;;;;;19.40;74.90;;;;;;5021435;28;19925;-63
2023/10/10 13:53:04;;;;;;;;;;;19.40;75.00;;;;;;5020672;28;20423;-63
2023/10/10 13:55:38;;;;;;;;;;;19.40;74.90;;;;;;5021773;28;19925;-63
2023/10/10 13:58:13;;;;;;;;;;;19.40;75.00;;;;;;5021449;28;19933;-63
2023/10/10 14:00:52;;;;;;;;;;;19.30;75.10;;;;;;5020125;28;19925;-63
2023/10/10 14:03:35;;;;;;;;;;;19.30;75.70;;;;;;5021796;28;19945;-62
2023/10/10 14:06:10;;;;;;;;;;;19.20;76.40;;;;;;5020685;28;19936;-62
2023/10/10 14:08:47;;;;;;;;;;;19.20;75.80;;;;;;5020684;28;19925;-62
2023/10/10 14:11:21;;;;;;;;;;;19.20;75.30;;;;;;5020408;28;19929;-63
2023/10/10 14:13:55;;;;;;;;;;;19.30;74.90;;;;;;5021832;28;19987;-74
2023/10/10 14:16:29;;;;;;;;;;;19.30;75.40;;;;;;5013622;28;19932;-72
2023/10/10 14:19:02;;;;;;;;;;;19.20;75.30;;;;;;5019898;28;19963;-74
2023/10/10 14:21:39;;;;;;;;;;;19.10;75.90;;;;;;5021538;28;20343;-74
2023/10/10 14:24:13;;;;;;;;;;;19.20;75.70;;;;;;5020606;28;20004;-74
2023/10/10 14:26:51;;;;;;;;;;;19.20;75.50;;;;;;5018929;28;19931;-76
2023/10/10 14:29:25;;;;;;;;;;;19.10;75.90;;;;;;5020134;28;19931;-74
2023/10/10 14:31:58;;;;;;;;;;;19.20;75.50;;;;;;5019989;28;20014;-73
2023/10/10 14:34:38;;;;;;;;;;;19.20;75.50;;;;;;5020399;28;20007;-74
2023/10/10 14:37:15;;;;;;;;;;;19.10;75.60;;;;;;5024218;28;20308;-74
2023/10/10 14:39:51;;;;;;;;;;;19.10;75.80;;;;;;5025977;28;20356;-73
2023/10/10 14:42:27;;;;;;;;;;;19.10;76.00;;;;;;5006385;28;19926;-72
2023/10/10 14:45:00;;;;;;;;;;;19.10;76.50;;;;;;5005259;28;19930;-72
2023/10/10 14:47:43;;;;;;;;;;;19.00;77.00;;;;;;5018324;28;20435;-72
2023/10/10 14:50:23;;;;;;;;;;;19.00;76.60;;;;;;5026263;28;19925;-72
2023/10/10 14:52:59;;;;;;;;;;;19.00;76.70;;;;;;5028736;28;19933;-73
2023/10/10 14:55:32;;;;;;;;;;;19.00;76.40;;;;;;5027426;28;19972;-72
2023/10/10 14:58:09;;;;;;;;;;;18.90;76.50;;;;;;5024644;28;20450;-72
2023/10/10 15:00:43;;;;;;;;;;;18.90;77.10;;;;;;5023916;28;19929;-73
2023/10/10 15:03:17;;;;;;;;;;;18.90;76.70;;;;;;5023356;28;19928;-72
2023/10/10 15:05:51;;;;;;;;;;;18.90;76.90;;;;;;5022910;28;20078;-72
2023/10/10 15:08:27;;;;;;;;;;;18.90;77.60;;;;;;5024083;28;19962;-72
2023/10/10 15:11:00;;;;;;;;;;;18.90;77.50;;;;;;5025335;28;19925;-72
2023/10/10 15:13:35;;;;;;;;;;;18.80;77.40;;;;;;5023384;28;19944;-72
2023/10/10 15:16:11;;;;;;;;;;;18.80;77.20;;;;;;5022366;28;20055;-73
2023/10/10 15:18:43;;;;;;;;;;;18.70;77.20;;;;;;5024504;28;19953;-72
2023/10/10 15:21:16;;;;;;;;;;;18.70;77.30;;;;;;5023191;28;20315;-72
2023/10/10 15:23:53;;;;;;;;;;;18.80;77.50;;;;;;5014641;28;19983;-70
2023/10/10 15:26:27;;;;;;;;;;;18.80;78.00;;;;;;5004310;28;20316;-70
2023/10/10 15:29:03;;;;;;;;;;;18.70;77.60;;;;;;5004287;28;19930;-70
2023/10/10 15:31:37;;;;;;;;;;;18.70;78.10;;;;;;5004351;28;19984;-72
2023/10/10 15:34:11;;;;;;;;;;;18.60;78.00;;;;;;5004159;28;19940;-69
2023/10/10 15:36:45;;;;;;;;;;;18.60;78.30;;;;;;5004051;28;19979;-70
2023/10/10 15:39:23;;;;;;;;;;;18.60;78.20;;;;;;5003912;28;19929;-71
2023/10/10 15:41:59;;;;;;;;;;;18.60;78.50;;;;;;5003323;28;20019;-72
2023/10/10 15:44:32;;;;;;;;;;;18.60;78.90;;;;;;5002978;28;19926;-70
2023/10/10 15:47:05;;;;;;;;;;;18.60;78.80;;;;;;5002995;28;19926;-70
2023/10/10 15:49:38;;;;;;;;;;;18.50;79.00;;;;;;5003638;28;19992;-70
2023/10/10 15:52:11;;;;;;;;;;;18.50;79.40;;;;;;5003603;28;20110;-71
2023/10/10 15:54:50;;;;;;;;;;;18.50;79.80;;;;;;5003147;28;19968;-72
2023/10/10 15:57:26;;;;;;;;;;;18.50;80.20;;;;;;5003504;28;20024;-69
2023/10/10 15:59:58;;;;;;;;;;;18.40;80.40;;;;;;5004552;28;20020;-71
2023/10/10 16:02:32;;;;;;;;;;;18.30;80.70;;;;;;5001906;28;20012;-71
2023/10/10 16:05:06;;;;;;;;;;;18.30;81.00;;;;;;5003258;28;20369;-71
2023/10/10 16:07:45;;;;;;;;;;;18.30;81.10;;;;;;5002734;28;19988;-71
2023/10/10 16:10:19;;;;;;;;;;;18.20;81.20;;;;;;5001629;28;19925;-71
2023/10/10 16:12:52;;;;;;;;;;;18.20;81.60;;;;;;5002062;28;19932;-70
2023/10/10 16:15:26;;;;;;;;;;;18.20;81.80;;;;;;5003171;28;19926;-71
2023/10/10 16:17:59;;;;;;;;;;;18.10;82.20;;;;;;5002499;28;19932;-72
2023/10/10 16:20:35;;;;;;;;;;;18.10;82.40;;;;;;5013032;28;19933;-71
2023/10/10 16:23:08;;;;;;;;;;;18.10;82.70;;;;;;5005079;28;20376;-72
2023/10/10 16:25:43;;;;;;;;;;;18.00;83.00;;;;;;5023062;28;19925;-72
2023/10/10 16:28:17;;;;;;;;;;;17.90;83.20;;;;;;5022132;28;19936;-70
2023/10/10 16:30:53;;;;;;;;;;;17.80;83.40;;;;;;5022361;28;19929;-72
2023/10/10 16:33:26;;;;;;;;;;;17.80;83.50;;;;;;5022869;28;19925;-62
2023/10/10 16:35:59;;;;;;;;;;;17.70;83.80;;;;;;5023301;28;19925;-63
2023/10/10 16:38:35;;;;;;;;;;;17.70;84.10;;;;;;5021981;28;19932;-63
2023/10/10 16:41:10;;;;;;;;;;;17.60;84.30;;;;;;5022003;28;19925;-63
2023/10/10 16:43:43;;;;;;;;;;;17.60;84.50;;;;;;5021700;28;19965;-64
2023/10/10 16:46:17;;;;;;;;;;;17.50;84.60;;;;;;5022499;28;19926;-63
2023/10/10 16:48:51;;;;;;;;;;;17.40;84.50;;;;;;5020415;28;19932;-63
2023/10/10 16:51:26;;;;;;;;;;;17.40;84.60;;;;;;5022965;28;19940;-62
2023/10/10 16:53:59;;;;;;;;;;;17.30;84.60;;;;;;5023002;28;20399;-63
2023/10/10 16:56:35;;;;;;;;;;;17.30;84.70;;;;;;5020946;28;20408;-64
2023/10/10 16:59:08;;;;;;;;;;;17.30;84.90;;;;;;5020541;28;20017;-64
2023/10/10 17:01:42;;;;;;;;;;;17.20;85.00;;;;;;5022623;28;19932;-62
2023/10/10 17:04:18;;;;;;;;;;;17.20;85.10;;;;;;5002368;28;19934;-62
2023/10/10 17:06:51;;;;;;;;;;;17.10;85.10;;;;;;5001051;28;20463;-63
2023/10/10 17:09:26;;;;;;;;;;;17.10;85.30;;;;;;5002833;28;19947;-62
2023/10/10 17:12:02;;;;;;;;;;;17.10;85.30;;;;;;5001959;28;19926;-62
2023/10/10 17:14:37;;;;;;;;;;;17.00;85.20;;;;;;5001693;28;19952;-64
2023/10/10 17:17:13;;;;;;;;;;;17.00;85.30;;;;;;5001580;28;20434;-64